sensor_id;sensor_type;location;lat;lon;timestamp;temperature;humidity
16503;DHT22;53067;48.114;11.694;2022-10-16T00:01:28;15.70;79.10
16503;DHT22;53067;48.114;11.694;2022-10-16T00:03:58;15.70;79.00
16503;DHT22;53067;48.114;11.694;2022-10-16T00:06:27;15.60;78.90
16503;DHT22;53067;48.114;11.694;2022-10-16T00:08:54;15.70;78.90
16503;DHT22;53067;48.114;11.694;2022-10-16T00:11:25;15.60;79.00
16503;DHT22;53067;48.114;11.694;2022-10-16T00:13:55;15.60;79.10
16503;DHT22;53067;48.114;11.694;2022-10-16T00:16:23;15.50;79.10
16503;DHT22;53067;48.114;11.694;2022-10-16T00:18:51;15.50;79.30
16503;DHT22;53067;48.114;11.694;2022-10-16T00:21:24;15.50;79.20
16503;DHT22;53067;48.114;11.694;2022-10-16T00:23:57;15.50;79.20
16503;DHT22;53067;48.114;11.694;2022-10-16T00:26:27;15.50;79.20
16503;DHT22;53067;48.114;11.694;2022-10-16T00:29:14;15.40;79.00
16503;DHT22;53067;48.114;11.694;2022-10-16T00:31:41;15.40;78.90
16503;DHT22;53067;48.114;11.694;2022-10-16T00:34:09;15.40;79.10
16503;DHT22;53067;48.114;11.694;2022-10-16T00:36:36;15.40;79.10
16503;DHT22;53067;48.114;11.694;2022-10-16T00:39:04;15.30;79.10
16503;DHT22;53067;48.114;11.694;2022-10-16T00:41:33;15.30;79.00
16503;DHT22;53067;48.114;11.694;2022-10-16T00:44:03;15.30;79.10
16503;DHT22;53067;48.114;11.694;2022-10-16T00:46:38;15.30;79.20
16503;DHT22;53067;48.114;11.694;2022-10-16T00:49:14;15.30;79.20
16503;DHT22;53067;48.114;11.694;2022-10-16T00:51:51;15.20;79.20
16503;DHT22;53067;48.114;11.694;2022-10-16T00:54:19;15.20;79.30
16503;DHT22;53067;48.114;11.694;2022-10-16T00:56:48;15.20;79.50
16503;DHT22;53067;48.114;11.694;2022-10-16T00:59:30;15.20;79.40
16503;DHT22;53067;48.114;11.694;2022-10-16T01:01:59;15.20;79.60
16503;DHT22;53067;48.114;11.694;2022-10-16T01:04:30;15.10;79.70
16503;DHT22;53067;48.114;11.694;2022-10-16T01:13:18;15.10;79.80
16503;DHT22;53067;48.114;11.694;2022-10-16T01:15:44;15.10;79.80
16503;DHT22;53067;48.114;11.694;2022-10-16T01:18:21;15.10;79.80
16503;DHT22;53067;48.114;11.694;2022-10-16T01:21:02;15.10;79.90
16503;DHT22;53067;48.114;11.694;2022-10-16T01:29:24;15.10;79.70
16503;DHT22;53067;48.114;11.694;2022-10-16T01:31:50;15.10;79.60
16503;DHT22;53067;48.114;11.694;2022-10-16T01:34:29;15.10;79.80
16503;DHT22;53067;48.114;11.694;2022-10-16T01:37:04;15.10;79.80
16503;DHT22;53067;48.114;11.694;2022-10-16T01:39:30;15.10;79.80
16503;DHT22;53067;48.114;11.694;2022-10-16T01:42:07;15.10;79.70
16503;DHT22;53067;48.114;11.694;2022-10-16T01:44:33;15.00;79.70
16503;DHT22;53067;48.114;11.694;2022-10-16T01:47:03;15.00;79.60
16503;DHT22;53067;48.114;11.694;2022-10-16T01:49:33;15.00;79.60
16503;DHT22;53067;48.114;11.694;2022-10-16T01:52:05;15.00;79.50
16503;DHT22;53067;48.114;11.694;2022-10-16T01:54:34;15.00;79.50
16503;DHT22;53067;48.114;11.694;2022-10-16T01:57:04;15.00;79.50
16503;DHT22;53067;48.114;11.694;2022-10-16T01:59:35;15.00;79.60
16503;DHT22;53067;48.114;11.694;2022-10-16T02:02:06;14.90;79.50
16503;DHT22;53067;48.114;11.694;2022-10-16T02:04:53;14.90;79.50
16503;DHT22;53067;48.114;11.694;2022-10-16T02:07:20;14.90;79.40
16503;DHT22;53067;48.114;11.694;2022-10-16T02:09:48;14.90;79.50
16503;DHT22;53067;48.114;11.694;2022-10-16T02:12:29;14.90;79.40
16503;DHT22;53067;48.114;11.694;2022-10-16T02:14:56;14.80;79.30
16503;DHT22;53067;48.114;11.694;2022-10-16T02:17:24;14.80;79.40
16503;DHT22;53067;48.114;11.694;2022-10-16T02:19:53;14.80;79.70
16503;DHT22;53067;48.114;11.694;2022-10-16T02:22:32;14.70;80.00
16503;DHT22;53067;48.114;11.694;2022-10-16T02:25:04;14.70;80.20
16503;DHT22;53067;48.114;11.694;2022-10-16T02:27:53;14.70;80.40
16503;DHT22;53067;48.114;11.694;2022-10-16T02:30:24;14.70;80.50
16503;DHT22;53067;48.114;11.694;2022-10-16T02:32:52;14.70;80.50
16503;DHT22;53067;48.114;11.694;2022-10-16T02:35:21;14.70;80.50
16503;DHT22;53067;48.114;11.694;2022-10-16T02:37:50;14.70;80.50
16503;DHT22;53067;48.114;11.694;2022-10-16T02:40:19;14.70;80.70
16503;DHT22;53067;48.114;11.694;2022-10-16T02:42:49;14.70;80.80
16503;DHT22;53067;48.114;11.694;2022-10-16T02:45:18;14.70;80.70
16503;DHT22;53067;48.114;11.694;2022-10-16T02:47:46;14.70;80.90
16503;DHT22;53067;48.114;11.694;2022-10-16T02:53:02;14.70;80.60
16503;DHT22;53067;48.114;11.694;2022-10-16T02:55:29;14.70;80.60
16503;DHT22;53067;48.114;11.694;2022-10-16T02:57:57;14.70;80.70
16503;DHT22;53067;48.114;11.694;2022-10-16T03:00:25;14.60;80.70
16503;DHT22;53067;48.114;11.694;2022-10-16T03:02:52;14.70;80.70
16503;DHT22;53067;48.114;11.694;2022-10-16T03:05:20;14.70;80.50
16503;DHT22;53067;48.114;11.694;2022-10-16T03:07:47;14.70;80.60
16503;DHT22;53067;48.114;11.694;2022-10-16T03:10:15;14.70;80.50
16503;DHT22;53067;48.114;11.694;2022-10-16T03:12:42;14.70;80.20
16503;DHT22;53067;48.114;11.694;2022-10-16T03:15:10;14.70;80.00
16503;DHT22;53067;48.114;11.694;2022-10-16T03:17:38;14.70;79.80
16503;DHT22;53067;48.114;11.694;2022-10-16T03:20:06;14.70;79.70
16503;DHT22;53067;48.114;11.694;2022-10-16T03:22:33;14.70;79.50
16503;DHT22;53067;48.114;11.694;2022-10-16T03:25:01;14.70;79.20
16503;DHT22;53067;48.114;11.694;2022-10-16T03:27:29;14.70;79.20
16503;DHT22;53067;48.114;11.694;2022-10-16T03:29:56;14.60;79.10
16503;DHT22;53067;48.114;11.694;2022-10-16T03:32:24;14.60;78.90
16503;DHT22;53067;48.114;11.694;2022-10-16T03:34:51;14.60;78.90
16503;DHT22;53067;48.114;11.694;2022-10-16T03:37:20;14.60;79.00
16503;DHT22;53067;48.114;11.694;2022-10-16T03:39:48;14.50;79.00
16503;DHT22;53067;48.114;11.694;2022-10-16T03:42:15;14.50;79.30
16503;DHT22;53067;48.114;11.694;2022-10-16T03:44:43;14.50;79.30
16503;DHT22;53067;48.114;11.694;2022-10-16T03:47:10;14.40;79.40
16503;DHT22;53067;48.114;11.694;2022-10-16T03:49:38;14.40;79.50
16503;DHT22;53067;48.114;11.694;2022-10-16T03:52:05;14.40;79.50
16503;DHT22;53067;48.114;11.694;2022-10-16T03:54:33;14.40;79.70
16503;DHT22;53067;48.114;11.694;2022-10-16T03:57:00;14.40;79.90
16503;DHT22;53067;48.114;11.694;2022-10-16T03:59:28;14.40;80.10
16503;DHT22;53067;48.114;11.694;2022-10-16T04:01:56;14.40;80.30
16503;DHT22;53067;48.114;11.694;2022-10-16T04:04:23;14.40;80.60
16503;DHT22;53067;48.114;11.694;2022-10-16T04:06:51;14.40;80.80
16503;DHT22;53067;48.114;11.694;2022-10-16T04:09:19;14.40;80.70
16503;DHT22;53067;48.114;11.694;2022-10-16T04:11:46;14.40;80.20
16503;DHT22;53067;48.114;11.694;2022-10-16T04:14:14;14.50;80.80
16503;DHT22;53067;48.114;11.694;2022-10-16T04:16:41;14.50;80.70
16503;DHT22;53067;48.114;11.694;2022-10-16T04:19:10;14.50;80.70
16503;DHT22;53067;48.114;11.694;2022-10-16T04:21:38;14.50;80.70
16503;DHT22;53067;48.114;11.694;2022-10-16T04:24:06;14.60;80.70
16503;DHT22;53067;48.114;11.694;2022-10-16T04:26:33;14.60;80.70
16503;DHT22;53067;48.114;11.694;2022-10-16T04:29:01;14.70;80.60
16503;DHT22;53067;48.114;11.694;2022-10-16T04:31:28;14.70;80.50
16503;DHT22;53067;48.114;11.694;2022-10-16T04:33:56;14.80;80.50
16503;DHT22;53067;48.114;11.694;2022-10-16T04:36:23;14.80;80.20
16503;DHT22;53067;48.114;11.694;2022-10-16T04:38:51;14.80;80.20
16503;DHT22;53067;48.114;11.694;2022-10-16T04:41:18;14.80;80.00
16503;DHT22;53067;48.114;11.694;2022-10-16T04:43:46;14.90;79.90
16503;DHT22;53067;48.114;11.694;2022-10-16T04:46:13;14.90;79.70
16503;DHT22;53067;48.114;11.694;2022-10-16T04:48:41;14.90;79.80
16503;DHT22;53067;48.114;11.694;2022-10-16T04:51:09;15.00;79.80
16503;DHT22;53067;48.114;11.694;2022-10-16T04:53:37;15.00;79.70
16503;DHT22;53067;48.114;11.694;2022-10-16T04:56:04;15.00;79.50
16503;DHT22;53067;48.114;11.694;2022-10-16T04:58:32;15.00;79.30
16503;DHT22;53067;48.114;11.694;2022-10-16T05:00:59;15.10;79.20
16503;DHT22;53067;48.114;11.694;2022-10-16T05:03:27;15.10;79.30
16503;DHT22;53067;48.114;11.694;2022-10-16T05:05:54;15.10;79.30
16503;DHT22;53067;48.114;11.694;2022-10-16T05:08:23;15.10;79.20
16503;DHT22;53067;48.114;11.694;2022-10-16T05:10:50;15.20;79.20
16503;DHT22;53067;48.114;11.694;2022-10-16T05:13:18;15.20;79.20
16503;DHT22;53067;48.114;11.694;2022-10-16T05:15:49;15.20;79.10
16503;DHT22;53067;48.114;11.694;2022-10-16T05:21:05;15.30;78.90
16503;DHT22;53067;48.114;11.694;2022-10-16T05:23:32;15.20;79.00
16503;DHT22;53067;48.114;11.694;2022-10-16T05:26:00;15.30;79.10
16503;DHT22;53067;48.114;11.694;2022-10-16T05:28:29;15.30;79.10
16503;DHT22;53067;48.114;11.694;2022-10-16T05:30:57;15.30;79.40
16503;DHT22;53067;48.114;11.694;2022-10-16T05:33:26;15.30;78.80
16503;DHT22;53067;48.114;11.694;2022-10-16T05:35:53;15.30;78.70
16503;DHT22;53067;48.114;11.694;2022-10-16T05:38:21;15.30;78.70
16503;DHT22;53067;48.114;11.694;2022-10-16T05:40:52;15.30;78.80
16503;DHT22;53067;48.114;11.694;2022-10-16T05:43:39;15.30;78.70
16503;DHT22;53067;48.114;11.694;2022-10-16T05:46:06;15.30;78.80
16503;DHT22;53067;48.114;11.694;2022-10-16T05:48:34;15.40;78.90
16503;DHT22;53067;48.114;11.694;2022-10-16T05:51:04;15.40;78.70
16503;DHT22;53067;48.114;11.694;2022-10-16T05:53:34;15.40;78.80
16503;DHT22;53067;48.114;11.694;2022-10-16T05:56:02;15.40;78.90
16503;DHT22;53067;48.114;11.694;2022-10-16T05:58:37;15.40;78.80
16503;DHT22;53067;48.114;11.694;2022-10-16T06:01:07;15.40;78.70
16503;DHT22;53067;48.114;11.694;2022-10-16T06:03:34;15.40;79.30
16503;DHT22;53067;48.114;11.694;2022-10-16T06:08:42;15.40;78.80
16503;DHT22;53067;48.114;11.694;2022-10-16T06:11:13;15.40;78.60
16503;DHT22;53067;48.114;11.694;2022-10-16T06:13:40;15.40;78.60
16503;DHT22;53067;48.114;11.694;2022-10-16T06:16:10;15.40;78.60
16503;DHT22;53067;48.114;11.694;2022-10-16T06:18:38;15.40;78.80
16503;DHT22;53067;48.114;11.694;2022-10-16T06:21:12;15.40;78.80
16503;DHT22;53067;48.114;11.694;2022-10-16T06:23:40;15.40;78.90
16503;DHT22;53067;48.114;11.694;2022-10-16T06:26:10;15.40;79.00
16503;DHT22;53067;48.114;11.694;2022-10-16T06:28:38;15.40;79.00
16503;DHT22;53067;48.114;11.694;2022-10-16T06:31:07;15.40;79.10
16503;DHT22;53067;48.114;11.694;2022-10-16T06:33:36;15.40;79.10
16503;DHT22;53067;48.114;11.694;2022-10-16T06:36:10;15.40;79.10
16503;DHT22;53067;48.114;11.694;2022-10-16T06:38:35;15.40;79.10
16503;DHT22;53067;48.114;11.694;2022-10-16T06:41:04;15.40;79.00
16503;DHT22;53067;48.114;11.694;2022-10-16T06:43:32;15.50;79.10
16503;DHT22;53067;48.114;11.694;2022-10-16T06:46:02;15.60;79.30
16503;DHT22;53067;48.114;11.694;2022-10-16T06:48:30;15.60;78.80
16503;DHT22;53067;48.114;11.694;2022-10-16T06:53:31;15.70;78.80
16503;DHT22;53067;48.114;11.694;2022-10-16T06:56:10;15.70;78.80
16503;DHT22;53067;48.114;11.694;2022-10-16T06:58:35;15.80;78.70
16503;DHT22;53067;48.114;11.694;2022-10-16T07:01:03;15.80;78.50
16503;DHT22;53067;48.114;11.694;2022-10-16T07:03:31;15.80;78.50
16503;DHT22;53067;48.114;11.694;2022-10-16T07:06:03;15.80;78.50
16503;DHT22;53067;48.114;11.694;2022-10-16T07:08:34;15.90;78.50
16503;DHT22;53067;48.114;11.694;2022-10-16T07:11:04;15.90;78.20
16503;DHT22;53067;48.114;11.694;2022-10-16T07:13:37;15.90;78.20
16503;DHT22;53067;48.114;11.694;2022-10-16T07:16:07;15.90;78.20
16503;DHT22;53067;48.114;11.694;2022-10-16T07:18:35;16.00;77.90
16503;DHT22;53067;48.114;11.694;2022-10-16T07:21:19;16.00;77.90
16503;DHT22;53067;48.114;11.694;2022-10-16T07:23:55;16.00;77.90
16503;DHT22;53067;48.114;11.694;2022-10-16T07:26:24;16.00;77.80
16503;DHT22;53067;48.114;11.694;2022-10-16T07:28:51;16.10;77.70
16503;DHT22;53067;48.114;11.694;2022-10-16T07:31:20;16.10;77.70
16503;DHT22;53067;48.114;11.694;2022-10-16T07:33:49;16.20;77.60
16503;DHT22;53067;48.114;11.694;2022-10-16T07:36:18;16.30;77.60
16503;DHT22;53067;48.114;11.694;2022-10-16T07:38:46;16.40;77.30
16503;DHT22;53067;48.114;11.694;2022-10-16T07:41:16;16.50;77.10
16503;DHT22;53067;48.114;11.694;2022-10-16T07:43:50;16.60;77.00
16503;DHT22;53067;48.114;11.694;2022-10-16T07:46:19;16.70;76.50
16503;DHT22;53067;48.114;11.694;2022-10-16T07:48:47;16.80;76.40
16503;DHT22;53067;48.114;11.694;2022-10-16T07:51:20;16.90;76.20
16503;DHT22;53067;48.114;11.694;2022-10-16T07:53:48;17.10;75.90
16503;DHT22;53067;48.114;11.694;2022-10-16T07:56:17;17.20;75.70
16503;DHT22;53067;48.114;11.694;2022-10-16T07:58:45;17.30;75.50
16503;DHT22;53067;48.114;11.694;2022-10-16T08:01:14;17.40;75.30
16503;DHT22;53067;48.114;11.694;2022-10-16T08:03:44;17.50;74.90
16503;DHT22;53067;48.114;11.694;2022-10-16T08:06:11;17.70;74.90
16503;DHT22;53067;48.114;11.694;2022-10-16T08:08:39;17.80;74.60
16503;DHT22;53067;48.114;11.694;2022-10-16T08:11:07;17.90;74.00
16503;DHT22;53067;48.114;11.694;2022-10-16T08:13:35;18.00;74.10
16503;DHT22;53067;48.114;11.694;2022-10-16T08:16:03;18.10;73.00
16503;DHT22;53067;48.114;11.694;2022-10-16T08:18:37;18.20;72.80
16503;DHT22;53067;48.114;11.694;2022-10-16T08:21:06;18.30;72.70
16503;DHT22;53067;48.114;11.694;2022-10-16T08:23:34;18.40;72.30
16503;DHT22;53067;48.114;11.694;2022-10-16T08:26:06;18.60;72.10
16503;DHT22;53067;48.114;11.694;2022-10-16T08:28:35;18.70;71.60
16503;DHT22;53067;48.114;11.694;2022-10-16T08:31:07;18.80;71.20
16503;DHT22;53067;48.114;11.694;2022-10-16T08:33:38;19.00;70.40
16503;DHT22;53067;48.114;11.694;2022-10-16T08:36:06;19.10;70.40
16503;DHT22;53067;48.114;11.694;2022-10-16T08:38:34;19.30;69.40
16503;DHT22;53067;48.114;11.694;2022-10-16T08:49:10;19.90;68.30
16503;DHT22;53067;48.114;11.694;2022-10-16T08:51:37;20.10;67.50
16503;DHT22;53067;48.114;11.694;2022-10-16T08:54:31;20.20;66.00
16503;DHT22;53067;48.114;11.694;2022-10-16T08:56:55;20.40;65.80
16503;DHT22;53067;48.114;11.694;2022-10-16T08:59:23;20.60;65.30
16503;DHT22;53067;48.114;11.694;2022-10-16T09:01:51;20.80;64.70
16503;DHT22;53067;48.114;11.694;2022-10-16T09:15:19;21.80;62.10
16503;DHT22;53067;48.114;11.694;2022-10-16T09:17:54;21.90;61.10
16503;DHT22;53067;48.114;11.694;2022-10-16T09:23:18;22.30;59.70
16503;DHT22;53067;48.114;11.694;2022-10-16T09:25:25;22.50;58.90
16503;DHT22;53067;48.114;11.694;2022-10-16T09:27:53;22.70;58.80
16503;DHT22;53067;48.114;11.694;2022-10-16T09:30:22;22.80;58.90
16503;DHT22;53067;48.114;11.694;2022-10-16T09:32:51;23.00;58.00
16503;DHT22;53067;48.114;11.694;2022-10-16T09:38:05;23.50;58.50
16503;DHT22;53067;48.114;11.694;2022-10-16T09:40:35;23.60;57.30
16503;DHT22;53067;48.114;11.694;2022-10-16T09:46:08;24.00;56.00
16503;DHT22;53067;48.114;11.694;2022-10-16T09:48:47;24.10;55.80
16503;DHT22;53067;48.114;11.694;2022-10-16T09:51:22;24.50;55.70
16503;DHT22;53067;48.114;11.694;2022-10-16T09:53:53;25.10;55.10
16503;DHT22;53067;48.114;11.694;2022-10-16T09:56:24;25.90;53.50
16503;DHT22;53067;48.114;11.694;2022-10-16T09:58:54;26.90;51.40
16503;DHT22;53067;48.114;11.694;2022-10-16T10:01:29;28.00;48.30
16503;DHT22;53067;48.114;11.694;2022-10-16T10:03:55;29.10;46.00
16503;DHT22;53067;48.114;11.694;2022-10-16T10:06:27;29.70;43.70
16503;DHT22;53067;48.114;11.694;2022-10-16T10:09:05;29.90;42.30
16503;DHT22;53067;48.114;11.694;2022-10-16T10:11:39;29.70;42.00
16503;DHT22;53067;48.114;11.694;2022-10-16T10:14:20;29.30;42.80
16503;DHT22;53067;48.114;11.694;2022-10-16T10:16:38;29.10;42.70
16503;DHT22;53067;48.114;11.694;2022-10-16T10:19:28;28.90;42.80
16503;DHT22;53067;48.114;11.694;2022-10-16T10:21:38;28.50;43.00
16503;DHT22;53067;48.114;11.694;2022-10-16T10:24:09;28.40;42.90
16503;DHT22;53067;48.114;11.694;2022-10-16T10:26:34;28.50;44.00
16503;DHT22;53067;48.114;11.694;2022-10-16T10:29:28;28.80;43.90
16503;DHT22;53067;48.114;11.694;2022-10-16T10:32:25;29.40;42.40
16503;DHT22;53067;48.114;11.694;2022-10-16T10:35:04;30.00;38.40
16503;DHT22;53067;48.114;11.694;2022-10-16T10:37:42;30.20;37.20
16503;DHT22;53067;48.114;11.694;2022-10-16T10:40:27;30.50;38.60
16503;DHT22;53067;48.114;11.694;2022-10-16T10:43:03;30.80;36.50
16503;DHT22;53067;48.114;11.694;2022-10-16T10:45:48;31.20;35.50
16503;DHT22;53067;48.114;11.694;2022-10-16T10:48:42;31.40;34.50
16503;DHT22;53067;48.114;11.694;2022-10-16T10:51:30;31.80;34.40
16503;DHT22;53067;48.114;11.694;2022-10-16T10:54:09;32.40;34.00
16503;DHT22;53067;48.114;11.694;2022-10-16T11:07:28;33.90;27.30
16503;DHT22;53067;48.114;11.694;2022-10-16T11:10:07;33.80;27.90
16503;DHT22;53067;48.114;11.694;2022-10-16T11:12:36;34.10;28.60
16503;DHT22;53067;48.114;11.694;2022-10-16T11:15:32;34.50;27.40
16503;DHT22;53067;48.114;11.694;2022-10-16T11:20:54;35.10;26.80
16503;DHT22;53067;48.114;11.694;2022-10-16T11:26:21;35.10;25.70
16503;DHT22;53067;48.114;11.694;2022-10-16T11:28:51;34.90;26.90
16503;DHT22;53067;48.114;11.694;2022-10-16T11:31:48;35.10;26.00
16503;DHT22;53067;48.114;11.694;2022-10-16T11:37:09;36.20;25.10
16503;DHT22;53067;48.114;11.694;2022-10-16T11:39:34;36.80;24.80
16503;DHT22;53067;48.114;11.694;2022-10-16T11:42:10;37.30;24.40
16503;DHT22;53067;48.114;11.694;2022-10-16T11:47:45;37.80;23.40
16503;DHT22;53067;48.114;11.694;2022-10-16T11:50:29;37.80;22.80
16503;DHT22;53067;48.114;11.694;2022-10-16T11:53:01;37.50;23.40
16503;DHT22;53067;48.114;11.694;2022-10-16T11:55:36;37.20;23.40
16503;DHT22;53067;48.114;11.694;2022-10-16T11:58:19;36.90;23.50
16503;DHT22;53067;48.114;11.694;2022-10-16T12:00:40;36.50;23.10
16503;DHT22;53067;48.114;11.694;2022-10-16T12:03:21;35.90;23.70
16503;DHT22;53067;48.114;11.694;2022-10-16T12:06:02;35.50;24.20
16503;DHT22;53067;48.114;11.694;2022-10-16T12:08:27;35.20;24.50
16503;DHT22;53067;48.114;11.694;2022-10-16T12:11:05;35.20;24.70
16503;DHT22;53067;48.114;11.694;2022-10-16T12:13:34;35.50;24.20
16503;DHT22;53067;48.114;11.694;2022-10-16T12:18:44;36.40;24.10
16503;DHT22;53067;48.114;11.694;2022-10-16T12:21:14;37.00;23.40
16503;DHT22;53067;48.114;11.694;2022-10-16T12:23:56;37.40;23.10
16503;DHT22;53067;48.114;11.694;2022-10-16T12:26:27;37.50;22.30
16503;DHT22;53067;48.114;11.694;2022-10-16T12:28:56;37.30;22.40
16503;DHT22;53067;48.114;11.694;2022-10-16T12:31:35;37.10;22.80
16503;DHT22;53067;48.114;11.694;2022-10-16T12:33:58;37.10;22.10
16503;DHT22;53067;48.114;11.694;2022-10-16T12:36:32;36.70;22.70
16503;DHT22;53067;48.114;11.694;2022-10-16T12:39:00;36.40;22.50
16503;DHT22;53067;48.114;11.694;2022-10-16T12:41:30;36.40;23.30
16503;DHT22;53067;48.114;11.694;2022-10-16T12:43:59;36.40;23.40
16503;DHT22;53067;48.114;11.694;2022-10-16T12:51:43;36.30;22.60
16503;DHT22;53067;48.114;11.694;2022-10-16T12:54:12;36.00;22.70
16503;DHT22;53067;48.114;11.694;2022-10-16T13:02:28;34.80;23.90
16503;DHT22;53067;48.114;11.694;2022-10-16T13:13:22;33.50;26.50
16503;DHT22;53067;48.114;11.694;2022-10-16T13:18:52;33.60;27.50
16503;DHT22;53067;48.114;11.694;2022-10-16T13:21:31;34.00;25.40
16503;DHT22;53067;48.114;11.694;2022-10-16T13:29:23;34.10;26.20
16503;DHT22;53067;48.114;11.694;2022-10-16T13:31:51;33.80;25.00
16503;DHT22;53067;48.114;11.694;2022-10-16T13:34:21;33.20;25.40
16503;DHT22;53067;48.114;11.694;2022-10-16T13:36:52;32.70;26.10
16503;DHT22;53067;48.114;11.694;2022-10-16T13:39:27;32.20;26.00
16503;DHT22;53067;48.114;11.694;2022-10-16T13:42:03;31.60;27.20
16503;DHT22;53067;48.114;11.694;2022-10-16T13:44:46;31.20;27.40
16503;DHT22;53067;48.114;11.694;2022-10-16T13:47:30;30.80;27.90
16503;DHT22;53067;48.114;11.694;2022-10-16T13:50:02;30.50;28.60
16503;DHT22;53067;48.114;11.694;2022-10-16T13:52:29;30.20;28.60
16503;DHT22;53067;48.114;11.694;2022-10-16T13:54:57;29.90;29.00
16503;DHT22;53067;48.114;11.694;2022-10-16T13:57:25;29.60;30.00
16503;DHT22;53067;48.114;11.694;2022-10-16T13:59:53;29.30;30.00
16503;DHT22;53067;48.114;11.694;2022-10-16T14:02:26;29.00;30.70
16503;DHT22;53067;48.114;11.694;2022-10-16T14:04:54;28.70;31.30
16503;DHT22;53067;48.114;11.694;2022-10-16T14:07:32;28.50;30.90
16503;DHT22;53067;48.114;11.694;2022-10-16T14:09:59;28.20;31.50
16503;DHT22;53067;48.114;11.694;2022-10-16T14:12:26;28.00;32.10
16503;DHT22;53067;48.114;11.694;2022-10-16T14:14:55;27.80;32.10
16503;DHT22;53067;48.114;11.694;2022-10-16T14:17:31;27.60;33.40
16503;DHT22;53067;48.114;11.694;2022-10-16T14:20:02;27.40;33.50
16503;DHT22;53067;48.114;11.694;2022-10-16T14:22:40;27.30;34.30
16503;DHT22;53067;48.114;11.694;2022-10-16T14:25:26;27.10;35.70
16503;DHT22;53067;48.114;11.694;2022-10-16T14:30:28;26.80;36.30
16503;DHT22;53067;48.114;11.694;2022-10-16T14:33:01;26.60;36.00
16503;DHT22;53067;48.114;11.694;2022-10-16T14:38:01;26.40;36.80
16503;DHT22;53067;48.114;11.694;2022-10-16T14:43:26;26.10;38.40
16503;DHT22;53067;48.114;11.694;2022-10-16T14:45:54;26.00;39.30
16503;DHT22;53067;48.114;11.694;2022-10-16T14:48:22;25.90;39.30
16503;DHT22;53067;48.114;11.694;2022-10-16T14:50:50;25.80;39.80
16503;DHT22;53067;48.114;11.694;2022-10-16T14:53:18;25.70;39.60
16503;DHT22;53067;48.114;11.694;2022-10-16T14:55:46;25.60;39.90
16503;DHT22;53067;48.114;11.694;2022-10-16T14:58:17;25.50;40.40
16503;DHT22;53067;48.114;11.694;2022-10-16T15:00:45;25.40;41.60
16503;DHT22;53067;48.114;11.694;2022-10-16T15:03:13;25.30;41.80
16503;DHT22;53067;48.114;11.694;2022-10-16T15:05:40;25.20;41.80
16503;DHT22;53067;48.114;11.694;2022-10-16T15:08:09;25.10;42.70
16503;DHT22;53067;48.114;11.694;2022-10-16T15:10:41;25.00;43.30
16503;DHT22;53067;48.114;11.694;2022-10-16T15:13:11;24.80;43.40
16503;DHT22;53067;48.114;11.694;2022-10-16T15:15:44;24.70;44.00
16503;DHT22;53067;48.114;11.694;2022-10-16T15:18:13;24.70;44.00
16503;DHT22;53067;48.114;11.694;2022-10-16T15:20:42;24.50;44.60
16503;DHT22;53067;48.114;11.694;2022-10-16T15:23:18;24.40;44.90
16503;DHT22;53067;48.114;11.694;2022-10-16T15:25:51;24.40;45.60
16503;DHT22;53067;48.114;11.694;2022-10-16T15:28:20;24.30;46.20
16503;DHT22;53067;48.114;11.694;2022-10-16T15:30:50;24.20;46.40
16503;DHT22;53067;48.114;11.694;2022-10-16T15:33:21;24.10;46.80
16503;DHT22;53067;48.114;11.694;2022-10-16T15:35:50;24.00;47.40
16503;DHT22;53067;48.114;11.694;2022-10-16T15:38:19;23.90;47.90
16503;DHT22;53067;48.114;11.694;2022-10-16T15:43:38;23.80;48.90
16503;DHT22;53067;48.114;11.694;2022-10-16T15:46:09;23.60;49.20
16503;DHT22;53067;48.114;11.694;2022-10-16T15:48:36;23.50;49.50
16503;DHT22;53067;48.114;11.694;2022-10-16T15:51:07;23.50;50.10
16503;DHT22;53067;48.114;11.694;2022-10-16T15:53:35;23.40;50.70
16503;DHT22;53067;48.114;11.694;2022-10-16T15:56:04;23.30;50.80
16503;DHT22;53067;48.114;11.694;2022-10-16T15:58:32;23.20;51.50
16503;DHT22;53067;48.114;11.694;2022-10-16T16:01:00;23.10;52.10
16503;DHT22;53067;48.114;11.694;2022-10-16T16:03:30;23.00;52.40
16503;DHT22;53067;48.114;11.694;2022-10-16T16:05:58;22.90;52.00
16503;DHT22;53067;48.114;11.694;2022-10-16T16:08:25;22.80;52.50
16503;DHT22;53067;48.114;11.694;2022-10-16T16:11:08;22.70;52.80
16503;DHT22;53067;48.114;11.694;2022-10-16T16:13:33;22.70;53.10
16503;DHT22;53067;48.114;11.694;2022-10-16T16:16:01;22.60;53.30
16503;DHT22;53067;48.114;11.694;2022-10-16T16:18:28;22.50;53.60
16503;DHT22;53067;48.114;11.694;2022-10-16T16:20:56;22.40;53.80
16503;DHT22;53067;48.114;11.694;2022-10-16T16:23:23;22.40;54.20
16503;DHT22;53067;48.114;11.694;2022-10-16T16:26:14;22.30;54.30
16503;DHT22;53067;48.114;11.694;2022-10-16T16:28:37;22.20;54.80
16503;DHT22;53067;48.114;11.694;2022-10-16T16:31:06;22.10;55.10
16503;DHT22;53067;48.114;11.694;2022-10-16T16:33:33;22.00;55.30
16503;DHT22;53067;48.114;11.694;2022-10-16T16:36:03;22.00;55.60
16503;DHT22;53067;48.114;11.694;2022-10-16T16:38:33;21.90;56.10
16503;DHT22;53067;48.114;11.694;2022-10-16T16:41:11;21.80;56.50
16503;DHT22;53067;48.114;11.694;2022-10-16T16:43:39;21.70;56.60
16503;DHT22;53067;48.114;11.694;2022-10-16T16:46:06;21.60;56.70
16503;DHT22;53067;48.114;11.694;2022-10-16T16:48:34;21.60;57.00
16503;DHT22;53067;48.114;11.694;2022-10-16T16:51:07;21.50;57.20
16503;DHT22;53067;48.114;11.694;2022-10-16T16:53:35;21.40;57.50
16503;DHT22;53067;48.114;11.694;2022-10-16T16:56:04;21.40;57.80
16503;DHT22;53067;48.114;11.694;2022-10-16T16:58:33;21.20;58.10
16503;DHT22;53067;48.114;11.694;2022-10-16T17:01:01;21.20;58.40
16503;DHT22;53067;48.114;11.694;2022-10-16T17:03:30;21.10;58.70
16503;DHT22;53067;48.114;11.694;2022-10-16T17:06:07;21.00;58.80
16503;DHT22;53067;48.114;11.694;2022-10-16T17:08:38;21.00;59.10
16503;DHT22;53067;48.114;11.694;2022-10-16T17:11:06;20.90;59.20
16503;DHT22;53067;48.114;11.694;2022-10-16T17:13:35;20.80;59.50
16503;DHT22;53067;48.114;11.694;2022-10-16T17:16:07;20.80;59.70
16503;DHT22;53067;48.114;11.694;2022-10-16T17:18:53;20.70;59.90
16503;DHT22;53067;48.114;11.694;2022-10-16T17:21:21;20.60;60.20
16503;DHT22;53067;48.114;11.694;2022-10-16T17:23:50;20.60;60.40
16503;DHT22;53067;48.114;11.694;2022-10-16T17:26:18;20.50;60.70
16503;DHT22;53067;48.114;11.694;2022-10-16T17:28:49;20.50;61.00
16503;DHT22;53067;48.114;11.694;2022-10-16T17:31:18;20.40;61.20